Time;durP1;ratioP1;P1;durP2;ratioP2;P2;SDS_P1;SDS_P2;PMS_P1;PMS_P2;Temp;Humidity;BMP_temperature;BMP_pressure;BME280_temperature;BME280_humidity;BME280_pressure;Samples;Min_cycle;Max_cycle;Signal;HPM_P1;HPM_P2
2023/05/05 00:02:01;;;;;;;2.30;1.65;;;15.70;79.70;;;;;;4955444;28;20517;-69
2023/05/05 00:04:28;;;;;;;2.80;1.50;;;15.70;79.90;;;;;;4933379;28;20026;-69
2023/05/05 00:06:54;;;;;;;2.42;1.58;;;15.70;79.90;;;;;;4950116;28;20045;-69
2023/05/05 00:09:21;;;;;;;2.13;1.30;;;15.70;80.10;;;;;;4969025;28;20042;-68
2023/05/05 00:11:47;;;;;;;2.35;1.20;;;15.70;80.30;;;;;;4947672;28;20065;-68
2023/05/05 00:14:14;;;;;;;2.38;1.70;;;15.70;80.50;;;;;;4966381;28;20022;-70
2023/05/05 00:16:41;;;;;;;1.98;1.33;;;15.70;80.70;;;;;;4951772;28;20042;-69
2023/05/05 00:19:07;;;;;;;3.30;1.95;;;15.60;80.80;;;;;;4954129;28;20069;-68
2023/05/05 00:21:33;;;;;;;2.78;1.48;;;15.60;81.20;;;;;;4923802;28;20049;-68
2023/05/05 00:24:00;;;;;;;2.42;1.42;;;15.70;81.30;;;;;;4950760;28;20065;-69
2023/05/05 00:26:26;;;;;;;3.53;1.63;;;15.60;81.40;;;;;;4936858;28;20053;-68
2023/05/05 00:28:52;;;;;;;2.15;1.27;;;15.70;81.60;;;;;;4967252;28;20038;-68
2023/05/05 00:31:20;;;;;;;3.08;1.45;;;15.70;81.70;;;;;;4949565;28;20026;-68
2023/05/05 00:33:46;;;;;;;2.10;1.30;;;15.60;81.80;;;;;;4946150;28;20049;-69
2023/05/05 00:36:13;;;;;;;4.75;1.50;;;15.60;82.00;;;;;;4950690;28;20049;-68
2023/05/05 00:38:39;;;;;;;2.88;1.52;;;15.60;82.20;;;;;;4967727;28;20045;-68
2023/05/05 00:41:06;;;;;;;2.28;1.40;;;15.60;82.30;;;;;;4934353;28;20042;-69
2023/05/05 00:43:32;;;;;;;2.38;1.33;;;15.60;82.50;;;;;;4952376;28;20035;-68
2023/05/05 00:46:13;;;;;;;2.70;1.38;;;15.60;82.70;;;;;;4956816;28;20042;-68
2023/05/05 00:48:39;;;;;;;2.40;1.27;;;15.60;83.00;;;;;;4953790;28;20030;-68
2023/05/05 00:51:08;;;;;;;3.53;2.22;;;15.50;83.80;;;;;;4947369;28;20130;-68
2023/05/05 00:53:35;;;;;;;3.80;2.40;;;15.50;83.40;;;;;;4945763;28;20935;-68
2023/05/05 00:56:01;;;;;;;3.30;1.88;;;15.40;83.80;;;;;;4935329;28;20520;-68
2023/05/05 00:58:29;;;;;;;2.40;1.88;;;15.30;84.00;;;;;;4949758;28;20485;-68
2023/05/05 01:00:55;;;;;;;2.65;1.50;;;15.40;84.40;;;;;;4947970;28;20030;-68
2023/05/05 01:03:21;;;;;;;4.00;2.03;;;15.30;84.50;;;;;;4938078;28;20038;-68
2023/05/05 01:06:16;;;;;;;2.60;1.58;;;15.40;84.80;;;;;;4964205;28;20026;-68
2023/05/05 01:09:03;;;;;;;2.78;1.90;;;15.40;85.00;;;;;;4962589;28;20026;-68
2023/05/05 01:11:55;;;;;;;2.97;1.77;;;15.30;85.10;;;;;;4949372;28;20054;-68
2023/05/05 01:14:46;;;;;;;3.47;1.98;;;15.30;85.50;;;;;;4950941;28;20069;-68
2023/05/05 01:17:18;;;;;;;3.60;1.58;;;15.30;85.70;;;;;;4954785;28;20057;-68
2023/05/05 01:20:03;;;;;;;;;;;15.30;85.90;;;;;;4969735;28;20023;-68
2023/05/05 01:22:38;;;;;;;2.63;1.70;;;15.30;86.10;;;;;;4955005;28;20359;-68
2023/05/05 01:25:13;;;;;;;2.92;1.63;;;15.30;86.20;;;;;;4952488;28;20029;-68
2023/05/05 01:28:08;;;;;;;2.65;1.80;;;15.30;86.40;;;;;;4977909;28;20061;-68
2023/05/05 01:30:49;;;;;;;3.28;1.73;;;15.30;86.70;;;;;;4958272;28;20022;-67
2023/05/05 01:33:22;;;;;;;2.75;2.00;;;15.30;86.80;;;;;;4951566;28;20034;-68
2023/05/05 01:35:56;;;;;;;4.68;2.85;;;15.30;86.80;;;;;;4953625;28;20025;-68
2023/05/05 01:38:35;;;;;;;5.70;4.40;;;15.30;87.30;;;;;;4970391;28;20045;-68
2023/05/05 01:41:08;;;;;;;7.18;5.72;;;15.40;87.60;;;;;;4949062;28;20022;-68
2023/05/05 01:43:36;;;;;;;8.25;5.47;;;15.40;88.70;;;;;;4948853;28;20520;-68
2023/05/05 01:46:04;;;;;;;8.63;6.28;;;15.50;88.90;;;;;;4954475;28;20041;-68
2023/05/05 01:48:32;;;;;;;6.82;5.88;;;15.60;89.50;;;;;;4961898;28;20528;-68
2023/05/05 01:51:01;;;;;;;10.43;6.53;;;15.70;89.60;;;;;;4956593;28;20034;-68
2023/05/05 01:53:31;;;;;;;9.45;7.53;;;15.70;90.00;;;;;;4955463;28;20038;-68
2023/05/05 01:55:58;;;;;;;8.93;6.28;;;15.80;90.60;;;;;;4955362;28;20030;-68
2023/05/05 01:58:27;;;;;;;8.07;6.78;;;15.80;90.70;;;;;;4952952;28;20042;-68
2023/05/05 02:00:56;;;;;;;8.73;6.80;;;15.90;90.80;;;;;;4934330;28;20038;-68
2023/05/05 02:03:24;;;;;;;8.15;7.32;;;15.90;91.10;;;;;;4949529;28;20046;-67
2023/05/05 02:05:52;;;;;;;7.43;6.53;;;16.00;91.20;;;;;;4955894;28;20030;-68
2023/05/05 02:08:19;;;;;;;10.38;8.38;;;16.00;91.40;;;;;;4953235;28;20049;-68
2023/05/05 02:10:47;;;;;;;9.27;6.60;;;16.00;91.70;;;;;;4955691;28;20046;-68
2023/05/05 02:13:14;;;;;;;8.77;7.88;;;16.00;91.90;;;;;;4955381;28;20160;-68
2023/05/05 02:15:42;;;;;;;9.80;7.22;;;16.00;92.30;;;;;;4959309;28;20035;-69
2023/05/05 02:18:10;;;;;;;6.70;5.82;;;16.00;92.60;;;;;;4950482;28;20421;-68
2023/05/05 02:20:38;;;;;;;8.20;6.78;;;16.00;92.90;;;;;;4950208;28;20034;-68
2023/05/05 02:23:06;;;;;;;6.50;5.78;;;16.00;93.10;;;;;;4947536;28;20847;-68
2023/05/05 02:25:39;;;;;;;7.93;5.70;;;16.00;93.30;;;;;;4954190;28;20026;-68
2023/05/05 02:28:12;;;;;;;8.70;5.63;;;15.90;93.50;;;;;;4951025;28;20531;-68
2023/05/05 02:30:40;;;;;;;7.60;5.65;;;15.90;93.70;;;;;;4965029;28;20034;-68
2023/05/05 02:33:10;;;;;;;7.20;5.40;;;15.80;94.00;;;;;;4953946;28;20501;-69
2023/05/05 02:35:40;;;;;;;4.65;4.05;;;15.80;94.30;;;;;;4961462;28;20046;-68
2023/05/05 02:38:18;;;;;;;3.60;3.30;;;15.80;94.50;;;;;;4963712;28;20390;-68
2023/05/05 02:40:50;;;;;;;4.75;3.90;;;15.70;94.60;;;;;;4949412;28;20030;-69
2023/05/05 02:43:20;;;;;;;5.63;3.33;;;15.70;94.80;;;;;;4963072;28;20508;-68
2023/05/05 02:45:47;;;;;;;2.88;2.28;;;15.60;94.90;;;;;;4971304;28;20030;-68
2023/05/05 02:48:15;;;;;;;3.25;2.47;;;15.60;95.10;;;;;;4938572;28;20042;-68
2023/05/05 02:50:42;;;;;;;4.47;3.30;;;15.60;95.30;;;;;;4965799;28;20040;-68
2023/05/05 02:53:22;;;;;;;5.32;3.03;;;15.50;95.60;;;;;;4932295;28;20536;-68
2023/05/05 02:55:52;;;;;;;4.35;3.08;;;15.50;95.90;;;;;;4960859;28;20041;-68
2023/05/05 02:58:27;;;;;;;4.78;3.92;;;15.40;96.30;;;;;;4962591;28;21854;-68
2023/05/05 03:00:56;;;;;;;3.72;2.78;;;15.30;96.50;;;;;;4956775;28;21180;-68
2023/05/05 03:03:43;;;;;;;3.80;2.83;;;15.20;96.80;;;;;;4948992;28;21190;-68
2023/05/05 03:06:20;;;;;;;3.05;2.65;;;15.20;97.20;;;;;;4953177;28;20030;-69
2023/05/05 03:09:10;;;;;;;3.90;3.47;;;15.10;97.60;;;;;;4940125;28;20467;-68
2023/05/05 03:12:00;;;;;;;4.22;2.88;;;15.00;98.00;;;;;;4947602;28;20054;-68
2023/05/05 03:14:33;;;;;;;3.22;2.58;;;15.00;98.30;;;;;;4933615;28;20057;-69
2023/05/05 03:17:01;;;;;;;1.77;1.48;;;14.90;98.60;;;;;;4972012;28;20664;-68
2023/05/05 03:19:29;;;;;;;2.22;1.85;;;14.80;98.70;;;;;;4960365;28;20038;-68
2023/05/05 03:22:01;;;;;;;2.80;2.47;;;14.80;99.30;;;;;;4955677;28;20496;-68
2023/05/05 03:24:28;;;;;;;2.47;2.00;;;14.70;99.30;;;;;;4952437;28;20504;-68
2023/05/05 03:27:01;;;;;;;2.60;2.20;;;14.60;99.60;;;;;;4951732;28;20030;-69
2023/05/05 03:29:33;;;;;;;3.20;2.70;;;14.50;99.90;;;;;;4951892;28;20049;-68
2023/05/05 03:32:00;;;;;;;2.00;1.58;;;14.50;99.90;;;;;;4949707;28;20493;-68
2023/05/05 03:34:27;;;;;;;2.70;2.00;;;14.40;99.90;;;;;;4963653;28;20369;-68
2023/05/05 03:36:54;;;;;;;4.05;2.30;;;14.30;99.90;;;;;;4938647;28;20417;-68
2023/05/05 03:39:20;;;;;;;2.13;1.92;;;14.20;99.90;;;;;;4975388;28;20470;-68
2023/05/05 03:41:48;;;;;;;2.80;2.22;;;14.10;99.90;;;;;;4955653;28;20027;-68
2023/05/05 03:44:15;;;;;;;2.90;2.28;;;14.10;99.90;;;;;;4955859;28;20434;-68
2023/05/05 03:46:42;;;;;;;3.83;3.38;;;14.00;99.90;;;;;;4955339;28;20393;-68
2023/05/05 03:49:11;;;;;;;5.05;3.80;;;13.90;99.90;;;;;;4952581;28;20034;-68
2023/05/05 03:51:40;;;;;;;4.45;3.38;;;13.90;99.90;;;;;;4928645;28;20038;-68
2023/05/05 03:54:07;;;;;;;4.88;3.50;;;13.90;99.90;;;;;;4946870;28;20049;-68
2023/05/05 03:56:33;;;;;;;4.78;4.28;;;13.80;99.90;;;;;;4970588;28;20391;-68
2023/05/05 03:58:59;;;;;;;4.45;4.03;;;13.80;99.90;;;;;;4952631;28;20425;-69
2023/05/05 04:01:28;;;;;;;5.10;4.68;;;13.70;99.90;;;;;;4952940;28;20488;-68
2023/05/05 04:03:55;;;;;;;6.47;5.88;;;13.70;99.90;;;;;;4952797;28;20458;-69
2023/05/05 04:06:22;;;;;;;7.22;6.18;;;13.60;99.90;;;;;;4939982;28;20045;-69
2023/05/05 04:08:48;;;;;;;7.43;6.72;;;13.60;99.90;;;;;;4952297;28;20070;-69
2023/05/05 04:11:15;;;;;;;8.40;7.45;;;13.60;99.90;;;;;;4930840;28;20057;-68
2023/05/05 04:13:41;;;;;;;12.35;9.35;;;13.50;99.90;;;;;;4964263;28;20045;-69
2023/05/05 04:16:08;;;;;;;11.50;8.43;;;13.50;99.90;;;;;;4968975;28;20048;-69
2023/05/05 04:18:36;;;;;;;8.60;7.43;;;13.50;99.90;;;;;;4953339;28;20039;-68
2023/05/05 04:21:03;;;;;;;7.28;6.22;;;13.50;99.90;;;;;;4950187;28;20038;-69
2023/05/05 04:23:30;;;;;;;10.18;9.18;;;13.50;99.90;;;;;;4959388;28;20041;-69
2023/05/05 04:25:56;;;;;;;8.52;7.53;;;13.50;99.90;;;;;;4958988;28;20037;-68
2023/05/05 04:28:24;;;;;;;7.70;7.00;;;13.50;99.90;;;;;;4958708;28;20063;-68
2023/05/05 04:30:51;;;;;;;8.35;7.55;;;13.50;99.90;;;;;;4948127;28;20030;-69
2023/05/05 04:33:18;;;;;;;8.52;7.63;;;13.50;99.90;;;;;;4949393;28;20355;-69
2023/05/05 04:35:47;;;;;;;8.88;7.97;;;13.50;99.90;;;;;;4968596;28;20033;-69
2023/05/05 04:38:13;;;;;;;9.40;7.68;;;13.50;99.90;;;;;;4971314;28;20064;-68
2023/05/05 04:40:40;;;;;;;8.35;6.95;;;13.50;99.90;;;;;;4948504;28;20030;-69
2023/05/05 04:43:07;;;;;;;9.55;7.75;;;13.50;99.90;;;;;;4948074;28;20426;-69
2023/05/05 04:45:34;;;;;;;9.90;8.15;;;13.50;99.90;;;;;;4957796;28;20034;-69
2023/05/05 04:48:00;;;;;;;6.90;5.70;;;13.50;99.90;;;;;;4958319;28;20037;-69
2023/05/05 04:50:27;;;;;;;7.82;5.75;;;13.60;99.90;;;;;;4953535;28;20045;-68
2023/05/05 04:52:53;;;;;;;7.70;6.50;;;13.70;99.90;;;;;;4948498;28;20026;-69
2023/05/05 04:55:20;;;;;;;8.20;7.38;;;13.70;99.90;;;;;;4953231;28;20041;-69
2023/05/05 04:57:46;;;;;;;5.50;5.00;;;13.80;99.90;;;;;;4949597;28;20369;-69
2023/05/05 05:00:13;;;;;;;5.85;4.85;;;13.90;99.90;;;;;;4947391;28;20026;-69
2023/05/05 05:02:40;;;;;;;5.25;4.75;;;13.90;99.90;;;;;;4950532;28;20034;-68
2023/05/05 05:05:07;;;;;;;5.70;5.18;;;13.90;99.90;;;;;;4951157;28;20050;-69
2023/05/05 05:07:33;;;;;;;5.85;5.25;;;13.90;99.90;;;;;;4955635;28;20038;-69
2023/05/05 05:10:01;;;;;;;6.88;6.03;;;13.90;99.90;;;;;;4955361;28;20045;-69
2023/05/05 05:12:27;;;;;;;5.82;5.28;;;13.90;99.90;;;;;;4953992;28;20069;-69
2023/05/05 05:14:53;;;;;;;7.07;6.30;;;14.00;99.90;;;;;;4931062;28;20045;-69
2023/05/05 05:17:21;;;;;;;7.30;6.07;;;14.10;99.90;;;;;;4966195;28;20485;-69
2023/05/05 05:19:48;;;;;;;6.85;5.25;;;14.10;99.90;;;;;;4963134;28;20060;-68
2023/05/05 05:22:15;;;;;;;5.90;5.30;;;14.20;99.90;;;;;;4947892;28;20042;-69
2023/05/05 05:24:46;;;;;;;7.00;5.78;;;14.30;99.90;;;;;;4944399;28;20038;-69
2023/05/05 05:27:13;;;;;;;6.78;6.03;;;14.40;99.90;;;;;;4949448;28;20389;-69
2023/05/05 05:29:43;;;;;;;8.60;6.68;;;14.50;99.90;;;;;;4972747;28;20128;-68
2023/05/05 05:32:10;;;;;;;8.65;6.30;;;14.70;99.90;;;;;;4939693;28;20054;-68
2023/05/05 05:34:37;;;;;;;7.78;5.95;;;14.80;99.90;;;;;;4957977;28;20053;-69
2023/05/05 05:37:05;;;;;;;7.28;6.45;;;15.00;99.90;;;;;;4952153;28;20045;-68
2023/05/05 05:39:32;;;;;;;8.48;6.75;;;15.20;99.90;;;;;;4948360;28;20042;-68
2023/05/05 05:41:58;;;;;;;8.30;7.03;;;15.30;99.90;;;;;;4947380;28;20038;-69
2023/05/05 05:44:25;;;;;;;6.88;5.38;;;15.50;99.90;;;;;;4933598;28;20030;-69
2023/05/05 05:46:51;;;;;;;5.80;5.22;;;15.60;99.90;;;;;;4951214;28;20442;-68
2023/05/05 05:49:18;;;;;;;5.75;4.93;;;15.70;99.90;;;;;;4954348;28;20504;-69
2023/05/05 05:51:44;;;;;;;6.70;5.55;;;15.80;99.90;;;;;;4953940;28;20536;-69
2023/05/05 05:54:12;;;;;;;6.20;5.60;;;15.80;99.90;;;;;;4956031;28;20042;-69
2023/05/05 05:56:38;;;;;;;8.75;5.75;;;15.90;99.90;;;;;;4959848;28;20026;-69
2023/05/05 05:59:07;;;;;;;7.35;6.57;;;16.00;99.90;;;;;;4953926;28;20061;-69
2023/05/05 06:01:34;;;;;;;7.63;5.47;;;16.20;99.90;;;;;;4965878;28;20042;-69
2023/05/05 06:04:01;;;;;;;5.60;4.75;;;16.30;99.90;;;;;;4965505;28;20034;-69
2023/05/05 06:06:27;;;;;;;6.20;4.70;;;16.50;99.90;;;;;;4953749;28;20369;-70
2023/05/05 06:08:53;;;;;;;7.30;5.90;;;16.70;99.90;;;;;;4971847;28;20025;-70
2023/05/05 06:11:21;;;;;;;5.60;5.00;;;16.80;99.90;;;;;;4948969;28;20059;-69
2023/05/05 06:13:48;;;;;;;7.78;4.30;;;17.00;99.90;;;;;;4939135;28;20545;-68
2023/05/05 06:16:15;;;;;;;5.45;4.15;;;17.20;99.90;;;;;;4959240;28;20034;-68
2023/05/05 06:18:44;;;;;;;10.70;6.65;;;17.40;99.90;;;;;;4955147;28;20023;-68
2023/05/05 06:21:12;;;;;;;7.05;5.53;;;17.60;99.90;;;;;;4964953;28;20466;-68
2023/05/05 06:23:38;;;;;;;6.97;5.43;;;17.80;99.90;;;;;;4948938;28;20054;-69
2023/05/05 06:26:06;;;;;;;7.03;5.22;;;18.10;99.90;;;;;;4954886;28;20046;-69
2023/05/05 06:28:32;;;;;;;7.53;5.30;;;18.50;99.90;;;;;;4956155;28;20034;-69
2023/05/05 06:30:59;;;;;;;7.00;5.32;;;18.70;99.90;;;;;;4947607;28;20045;-69
2023/05/05 06:33:25;;;;;;;5.97;4.38;;;19.00;99.90;;;;;;4951815;28;20022;-68
2023/05/05 06:35:53;;;;;;;5.43;3.75;;;19.10;99.90;;;;;;4959395;28;20031;-68
2023/05/05 06:38:19;;;;;;;6.45;4.40;;;19.20;99.90;;;;;;4959640;28;20037;-69
2023/05/05 06:40:48;;;;;;;5.55;4.07;;;19.30;99.90;;;;;;4953199;28;20042;-68
2023/05/05 06:43:16;;;;;;;4.13;2.58;;;19.50;99.90;;;;;;4951008;28;20042;-68
2023/05/05 06:45:47;;;;;;;4.70;3.20;;;19.80;99.90;;;;;;4955953;28;20461;-68
2023/05/05 06:48:13;;;;;;;3.42;1.98;;;20.20;99.90;;;;;;4939458;28;20038;-69
2023/05/05 06:50:39;;;;;;;5.78;3.60;;;20.50;99.90;;;;;;4947337;28;20050;-68
2023/05/05 06:53:06;;;;;;;4.63;3.40;;;20.60;99.90;;;;;;4948765;28;20037;-69
2023/05/05 06:55:32;;;;;;;6.03;3.15;;;20.70;99.90;;;;;;4954616;28;20474;-69
2023/05/05 06:57:58;;;;;;;4.45;2.90;;;20.60;99.90;;;;;;4961059;28;20049;-69
2023/05/05 07:00:25;;;;;;;5.18;2.78;;;20.60;99.90;;;;;;4956405;28;20034;-69
2023/05/05 07:02:51;;;;;;;4.80;2.50;;;20.50;99.90;;;;;;4953314;28;20042;-69
2023/05/05 07:05:17;;;;;;;4.25;2.50;;;20.40;99.90;;;;;;4953044;28;20030;-69
2023/05/05 07:07:54;;;;;;;3.72;2.35;;;20.40;99.90;;;;;;4954326;28;20038;-69
2023/05/05 07:10:21;;;;;;;4.15;2.50;;;20.40;99.90;;;;;;4966129;28;20038;-69
2023/05/05 07:12:48;;;;;;;3.10;2.17;;;20.30;99.90;;;;;;4952434;28;20038;-71
2023/05/05 07:15:14;;;;;;;4.05;3.33;;;20.30;99.90;;;;;;4951579;28;20033;-70
2023/05/05 07:17:41;;;;;;;3.20;1.60;;;20.30;99.90;;;;;;4955586;28;20382;-70
2023/05/05 07:20:08;;;;;;;3.30;1.58;;;20.30;99.90;;;;;;4957038;28;20528;-69
2023/05/05 07:22:34;;;;;;;3.88;2.63;;;20.30;99.90;;;;;;4958248;28;20026;-74
2023/05/05 07:25:02;;;;;;;3.65;1.80;;;20.30;99.90;;;;;;4949295;28;20045;-71
2023/05/05 07:27:30;;;;;;;3.53;2.55;;;20.30;99.90;;;;;;4939642;28;20474;-70
2023/05/05 07:29:56;;;;;;;2.72;1.77;;;20.30;99.90;;;;;;4948315;28;22498;-71
2023/05/05 07:32:22;;;;;;;4.78;2.40;;;20.40;99.90;;;;;;4949007;28;20034;-72
2023/05/05 07:34:49;;;;;;;6.50;4.60;;;20.60;99.90;;;;;;4946756;28;20054;-70
2023/05/05 07:37:15;;;;;;;9.35;4.35;;;20.70;99.90;;;;;;4954190;28;20033;-70
2023/05/05 07:39:41;;;;;;;7.38;4.53;;;20.80;99.90;;;;;;4955229;28;20038;-68
2023/05/05 07:42:08;;;;;;;7.88;5.40;;;20.80;99.90;;;;;;4957360;28;20145;-69
2023/05/05 07:44:34;;;;;;;4.22;3.65;;;20.90;99.90;;;;;;4954119;28;20517;-69
2023/05/05 07:47:00;;;;;;;5.07;3.78;;;20.90;99.90;;;;;;4951848;28;20041;-69
2023/05/05 07:49:27;;;;;;;3.22;2.58;;;21.10;99.90;;;;;;4933637;28;20054;-69
2023/05/05 07:51:54;;;;;;;6.18;2.47;;;21.20;99.90;;;;;;4946282;28;20030;-69
2023/05/05 07:54:20;;;;;;;5.20;2.78;;;21.30;99.90;;;;;;4947563;28;21574;-68
2023/05/05 07:56:47;;;;;;;3.65;2.78;;;21.40;99.90;;;;;;4951974;28;20034;-66
2023/05/05 07:59:13;;;;;;;2.78;2.38;;;21.60;99.90;;;;;;4952424;28;20046;-67
2023/05/05 08:01:40;;;;;;;4.70;3.65;;;21.60;99.90;;;;;;4951714;28;20045;-68
2023/05/05 08:04:06;;;;;;;4.28;3.10;;;21.70;99.90;;;;;;4952832;28;20074;-68
2023/05/05 08:06:32;;;;;;;4.55;2.67;;;21.80;99.90;;;;;;4956482;28;20457;-68
2023/05/05 08:08:59;;;;;;;4.40;2.35;;;21.90;99.40;;;;;;4952989;28;20065;-68
2023/05/05 08:11:26;;;;;;;3.70;2.03;;;21.90;99.20;;;;;;4943811;28;20039;-68
2023/05/05 08:13:52;;;;;;;4.55;3.10;;;22.00;99.30;;;;;;4946971;28;20034;-68
2023/05/05 08:16:18;;;;;;;4.85;3.00;;;22.20;98.90;;;;;;4949809;28;20500;-69
2023/05/05 08:18:45;;;;;;;4.22;2.00;;;22.20;98.70;;;;;;4951925;28;20378;-68
2023/05/05 08:21:11;;;;;;;2.50;1.88;;;22.40;98.50;;;;;;4944653;28;20401;-70
2023/05/05 08:23:38;;;;;;;3.83;2.25;;;22.50;97.90;;;;;;4949036;28;20034;-70
2023/05/05 08:26:05;;;;;;;3.47;2.00;;;22.60;97.60;;;;;;4956635;28;20513;-68
2023/05/05 08:28:34;;;;;;;4.75;2.58;;;22.70;96.90;;;;;;4959644;28;20505;-68
2023/05/05 08:31:00;;;;;;;4.88;1.88;;;22.70;96.70;;;;;;4930904;28;20050;-69
2023/05/05 08:33:26;;;;;;;3.95;2.55;;;22.80;96.90;;;;;;4941415;28;20042;-70
2023/05/05 08:35:53;;;;;;;4.93;3.33;;;22.90;96.70;;;;;;4948428;28;20026;-68
2023/05/05 08:38:19;;;;;;;6.50;3.53;;;23.10;96.80;;;;;;4948733;28;20551;-69
2023/05/05 08:40:45;;;;;;;3.60;2.30;;;23.30;96.50;;;;;;4941765;28;20045;-69
2023/05/05 08:43:12;;;;;;;5.53;3.33;;;23.30;96.40;;;;;;4943681;28;20042;-68
2023/05/05 08:45:40;;;;;;;6.32;3.58;;;23.40;95.80;;;;;;4956142;28;20065;-68
2023/05/05 08:48:08;;;;;;;5.00;2.70;;;23.30;95.50;;;;;;4956189;28;20397;-69
2023/05/05 08:50:36;;;;;;;3.10;1.65;;;23.30;95.50;;;;;;4949878;28;20046;-69
2023/05/05 08:53:08;;;;;;;7.15;3.35;;;23.40;95.50;;;;;;4949287;28;21747;-68
2023/05/05 08:55:37;;;;;;;4.10;2.30;;;23.60;95.10;;;;;;4950274;28;20373;-68
2023/05/05 08:58:05;;;;;;;2.58;1.67;;;23.80;94.60;;;;;;4949459;28;20350;-68
2023/05/05 09:00:32;;;;;;;2.45;1.45;;;24.00;94.50;;;;;;4942649;28;20054;-69
2023/05/05 09:02:59;;;;;;;4.90;2.03;;;24.20;94.40;;;;;;4942316;28;21775;-69
2023/05/05 09:05:26;;;;;;;6.82;2.28;;;24.60;93.90;;;;;;4947124;28;20046;-68
2023/05/05 09:07:52;;;;;;;2.95;1.98;;;25.10;93.30;;;;;;4967603;28;20049;-69
2023/05/05 09:10:19;;;;;;;3.47;2.15;;;25.40;92.70;;;;;;4952450;28;20053;-70
2023/05/05 09:12:45;;;;;;;5.38;2.38;;;25.60;91.60;;;;;;4952922;28;20041;-70
2023/05/05 09:15:13;;;;;;;4.50;2.88;;;25.60;91.20;;;;;;4947868;28;20034;-70
2023/05/05 09:17:41;;;;;;;2.83;1.88;;;25.80;91.10;;;;;;4945662;28;20484;-72
2023/05/05 09:20:12;;;;;;;3.28;1.23;;;25.90;90.80;;;;;;4944639;28;20045;-69
2023/05/05 09:22:40;;;;;;;2.17;1.40;;;25.90;90.70;;;;;;4948570;28;20049;-69
2023/05/05 09:25:10;;;;;;;4.93;1.85;;;25.80;90.30;;;;;;4946818;28;20513;-69
2023/05/05 09:27:39;;;;;;;3.38;1.38;;;25.80;89.80;;;;;;4967999;28;20042;-68
2023/05/05 09:30:08;;;;;;;2.35;0.93;;;25.70;88.60;;;;;;4950909;28;21395;-68
2023/05/05 09:32:48;;;;;;;4.40;0.90;;;25.60;87.80;;;;;;4958858;28;20034;-70
2023/05/05 09:35:16;;;;;;;2.20;0.60;;;25.50;88.20;;;;;;4960320;28;20042;-68
2023/05/05 09:37:43;;;;;;;1.90;0.60;;;25.50;87.10;;;;;;4951008;28;20053;-69
2023/05/05 09:40:11;;;;;;;1.38;0.60;;;25.50;86.60;;;;;;4946468;28;20500;-70
2023/05/05 09:42:39;;;;;;;2.55;0.70;;;25.60;86.10;;;;;;4948562;28;21215;-69
2023/05/05 09:45:14;;;;;;;3.85;0.68;;;25.80;85.80;;;;;;4946101;28;20029;-69
2023/05/05 09:47:40;;;;;;;1.67;0.50;;;25.90;85.30;;;;;;4920722;28;20845;-71
2023/05/05 09:50:10;;;;;;;2.05;0.70;;;25.90;84.40;;;;;;4949407;28;20490;-71
2023/05/05 09:52:36;;;;;;;3.00;1.00;;;25.90;83.90;;;;;;4957985;28;20061;-69
2023/05/05 09:55:03;;;;;;;3.80;0.95;;;26.00;83.70;;;;;;4954801;28;20042;-70
2023/05/05 09:57:32;;;;;;;2.10;1.10;;;26.10;83.40;;;;;;4957066;28;20027;-70
2023/05/05 10:00:00;;;;;;;1.63;0.82;;;26.20;83.40;;;;;;4929951;28;20645;-69
2023/05/05 10:02:32;;;;;;;4.30;1.20;;;26.20;83.20;;;;;;4947162;28;20042;-70
2023/05/05 10:05:17;;;;;;;;;;;26.10;82.80;;;;;;4945220;28;20041;-70
2023/05/05 10:07:45;;;;;;;4.97;2.70;;;26.00;82.30;;;;;;4951243;28;19933;-71
2023/05/05 10:10:15;;;;;;;4.63;2.25;;;25.80;81.80;;;;;;4947965;28;20993;-72
2023/05/05 10:12:41;;;;;;;4.88;2.05;;;25.50;82.20;;;;;;4939681;28;20050;-70
2023/05/05 10:15:10;;;;;;;3.47;1.23;;;25.50;82.80;;;;;;4956569;28;20045;-69
2023/05/05 10:17:47;;;;;;;4.05;2.65;;;25.50;82.80;;;;;;4941905;28;20038;-70
2023/05/05 10:20:14;;;;;;;3.58;1.90;;;25.50;82.60;;;;;;4949960;28;21007;-69
2023/05/05 10:22:50;;;;;;;5.95;2.13;;;25.40;81.80;;;;;;4948353;28;20042;-69
2023/05/05 10:25:29;;;;;;;3.35;1.80;;;25.20;82.50;;;;;;4967319;28;20038;-70
2023/05/05 10:27:59;;;;;;;4.18;1.80;;;25.10;83.10;;;;;;4952068;28;20054;-70
2023/05/05 10:30:30;;;;;;;5.78;2.67;;;25.00;83.20;;;;;;4935737;28;20458;-69
2023/05/05 10:33:08;;;;;;;3.97;1.58;;;24.80;83.40;;;;;;4950321;28;20037;-69
2023/05/05 10:35:38;;;;;;;3.47;1.35;;;24.70;83.80;;;;;;4958647;28;20038;-69
2023/05/05 10:38:08;;;;;;;3.75;1.67;;;24.60;83.90;;;;;;4962585;28;20037;-69
2023/05/05 10:40:34;;;;;;;2.03;1.30;;;24.50;84.30;;;;;;4958052;28;20038;-69
2023/05/05 10:43:01;;;;;;;2.80;1.67;;;24.40;84.20;;;;;;4949106;28;20038;-70
2023/05/05 10:45:27;;;;;;;3.75;1.23;;;24.40;84.20;;;;;;4955470;28;20034;-69
2023/05/05 10:47:56;;;;;;;2.85;1.00;;;24.40;84.50;;;;;;4954854;28;20046;-70
2023/05/05 10:50:31;;;;;;;3.35;1.10;;;24.40;84.80;;;;;;4949068;28;20037;-69
2023/05/05 10:53:10;;;;;;;2.50;0.90;;;24.60;85.50;;;;;;4948448;28;20026;-70
2023/05/05 10:55:36;;;;;;;2.30;1.00;;;24.70;84.80;;;;;;4953836;28;20039;-70
2023/05/05 10:58:03;;;;;;;2.63;1.05;;;24.80;84.50;;;;;;4962902;28;20593;-72
2023/05/05 11:00:38;;;;;;;4.50;2.28;;;24.80;84.10;;;;;;4973480;28;20045;-71
2023/05/05 11:03:16;;;;;;;3.20;1.33;;;24.80;83.80;;;;;;4954401;28;20043;-72
2023/05/05 11:06:15;;;;;;;2.88;1.25;;;24.80;83.50;;;;;;4951812;28;20414;-69
2023/05/05 11:08:43;;;;;;;2.40;1.33;;;24.70;83.80;;;;;;4952698;28;20053;-70
2023/05/05 11:11:11;;;;;;;2.42;1.20;;;24.70;84.20;;;;;;4950979;28;20378;-69
2023/05/05 11:13:39;;;;;;;3.63;1.30;;;24.60;84.10;;;;;;4946498;28;20037;-69
2023/05/05 11:16:25;;;;;;;3.42;1.58;;;24.60;84.40;;;;;;4953371;28;20022;-69
2023/05/05 11:18:52;;;;;;;3.30;1.58;;;24.50;84.50;;;;;;4943859;28;22727;-69
2023/05/05 11:21:18;;;;;;;3.25;1.50;;;24.40;84.60;;;;;;4955852;28;20497;-69
2023/05/05 11:23:46;;;;;;;2.80;1.60;;;24.30;85.10;;;;;;4935730;28;20408;-69
2023/05/05 11:26:14;;;;;;;6.88;1.20;;;24.20;85.30;;;;;;4968156;28;20035;-69
2023/05/05 11:28:59;;;;;;;3.00;1.02;;;24.00;85.60;;;;;;4953120;28;20041;-69
2023/05/05 11:31:25;;;;;;;2.33;0.80;;;23.90;85.70;;;;;;4947272;28;20511;-69
2023/05/05 11:33:52;;;;;;;1.77;0.70;;;23.70;86.60;;;;;;4949071;28;20137;-69
2023/05/05 11:36:19;;;;;;;4.75;1.08;;;23.70;87.30;;;;;;4955134;28;20030;-69
2023/05/05 11:39:19;;;;;;;2.35;0.80;;;23.60;87.60;;;;;;4957750;28;20430;-69
2023/05/05 11:42:24;;;;;;;2.15;0.50;;;23.50;89.60;;;;;;4956318;28;20053;-69
2023/05/05 11:44:51;;;;;;;2.03;0.60;;;23.20;90.50;;;;;;4940683;28;20038;-69
2023/05/05 11:47:18;;;;;;;1.45;0.50;;;22.90;90.70;;;;;;4953748;28;20046;-68
2023/05/05 11:49:44;;;;;;;5.28;0.50;;;22.50;90.70;;;;;;4949862;28;20053;-68
2023/05/05 11:52:13;;;;;;;0.75;0.20;;;22.00;90.50;;;;;;4950728;28;20030;-68
2023/05/05 11:54:46;;;;;;;3.90;0.25;;;21.20;90.70;;;;;;4945130;28;20073;-69
2023/05/05 11:57:14;;;;;;;2.78;0.70;;;20.00;92.00;;;;;;4933728;28;20038;-71
2023/05/05 12:00:06;;;;;;;0.85;0.30;;;18.90;93.90;;;;;;4965352;28;20030;-69
2023/05/05 12:02:34;;;;;;;0.52;0.30;;;17.90;96.00;;;;;;4955508;28;20034;-72
2023/05/05 12:05:00;;;;;;;1.20;0.30;;;17.10;97.90;;;;;;4953794;28;20034;-76
2023/05/05 12:07:31;;;;;;;1.38;0.20;;;16.60;99.70;;;;;;4954538;28;20051;-78
2023/05/05 12:09:58;;;;;;;2.20;0.20;;;16.10;99.90;;;;;;4954853;28;20526;-84
2023/05/05 12:12:39;;;;;;;0.70;0.20;;;15.80;99.90;;;;;;4941361;28;20050;-82
2023/05/05 12:15:06;;;;;;;3.90;0.30;;;15.50;99.90;;;;;;4916925;28;20409;-75
2023/05/05 12:17:38;;;;;;;1.42;0.60;;;15.40;99.90;;;;;;4950666;28;20038;-79
2023/05/05 12:20:05;;;;;;;1.35;0.40;;;15.20;99.90;;;;;;4929309;28;20474;-78
2023/05/05 12:22:31;;;;;;;2.25;0.70;;;15.20;99.90;;;;;;4957041;28;20038;-75
2023/05/05 12:25:00;;;;;;;2.38;0.70;;;15.20;99.90;;;;;;4953461;28;20552;-74
2023/05/05 12:27:27;;;;;;;1.60;0.55;;;15.30;99.90;;;;;;4956920;28;20038;-75
2023/05/05 12:29:55;;;;;;;1.80;0.40;;;15.40;99.90;;;;;;4951569;28;20046;-73
2023/05/05 12:32:29;;;;;;;1.83;0.45;;;15.40;99.90;;;;;;4951336;28;20038;-73
2023/05/05 12:34:58;;;;;;;1.50;0.40;;;15.30;99.90;;;;;;4948179;28;20654;-72
2023/05/05 12:37:26;;;;;;;2.13;0.40;;;15.20;99.90;;;;;;4948816;28;20053;-72
2023/05/05 12:39:53;;;;;;;1.20;0.50;;;15.20;99.90;;;;;;4947143;28;20069;-72
2023/05/05 12:42:21;;;;;;;0.80;0.22;;;15.10;99.90;;;;;;4934225;28;20042;-72
2023/05/05 12:44:47;;;;;;;1.45;0.30;;;15.00;99.90;;;;;;4946580;28;20034;-72
2023/05/05 12:47:27;;;;;;;1.13;0.20;;;15.10;99.90;;;;;;4958995;28;20050;-72
2023/05/05 12:49:54;;;;;;;1.23;0.28;;;15.00;99.90;;;;;;4969394;28;20483;-72
2023/05/05 12:52:20;;;;;;;2.15;0.30;;;15.00;99.90;;;;;;4936644;28;20417;-73
2023/05/05 12:54:58;;;;;;;2.33;0.40;;;15.00;99.90;;;;;;4943805;28;20042;-72
2023/05/05 12:57:25;;;;;;;0.32;0.20;;;15.10;99.90;;;;;;4933943;28;20023;-72
2023/05/05 12:59:52;;;;;;;1.13;0.40;;;15.20;99.90;;;;;;4965114;28;20516;-73